Breese, Illinois
Current Conditions -  °F | °C
As of 4:14 PM on Sunday 25 Jan 2015 (Local Time) from KBLV Reporting Station
Overcast Overcast  
Wind Chill: 33°   Ceiling: 900
Heat Index: 41°   Visibility: 10mi
Dew Point: 41°   Wind: 16mph
Humidity: 100%   Direction: 360°N
Pressure: 29.7"   Gusts: 23mph
Location:  38.61°N, 89.53°W
Report Text: KBLV 252214Z AUTO 36014G20KT 10SM OVC009 05/05 A2970 RMK AO2 PRESRR
Loading
Personal Weather Stations






























Interactive Weather Map New forecast layout! Learn more

10-Day Weather Forecast

Advertisements
Track Severe Weather on mobile